Ashton, Nebraska
Current Conditions -  °F | °C
As of 7:53 PM on Monday 22 Dec 2014 (Local Time) from KGRI Reporting Station
Few Clouds Few Clouds  
Wind Chill: 25°   Ceiling: Unl
Heat Index: 34°   Visibility: 10mi
Dew Point: 29°   Wind: 12mph
Humidity: 82%   Direction: 290°WNW
Pressure: 29.53"   Gusts: NA
Location:  41.25°N, 98.79°W
Report Text: KGRI 230153Z 29010KT 10SM FEW044 01/M02 A2953 RMK AO2 SLP016 T00111017
Loading
Personal Weather Stations






























Interactive Weather Map New forecast layout! Learn more

10-Day Weather Forecast

Advertisements
Track Severe Weather on mobile